createdAt,value
2022-08-30T00:01:14.238Z,102348.53
2022-08-30T00:03:46.582Z,102359.91
2022-08-30T00:06:15.648Z,102359.50
2022-08-30T00:08:43.514Z,102363.81
2022-08-30T00:11:13.038Z,102360.09
2022-08-30T00:13:41.804Z,102365.41
2022-08-30T00:16:08.770Z,102364.69
2022-08-30T00:18:36.861Z,102380.63
2022-08-30T00:21:04.863Z,102383.44
2022-08-30T00:23:31.852Z,102396.63
2022-08-30T00:25:58.993Z,102415.94
2022-08-30T00:28:25.585Z,102456.81
2022-08-30T00:30:52.277Z,102522.34
2022-08-30T00:33:18.947Z,102539.34
2022-08-30T00:35:45.517Z,102546.22
2022-08-30T00:38:13.068Z,102561.31
2022-08-30T00:40:42.029Z,102577.25
2022-08-30T00:43:13.953Z,102595.00
2022-08-30T00:45:41.064Z,102600.31
2022-08-30T00:48:07.663Z,102610.38
2022-08-30T00:50:37.909Z,102622.69
2022-08-30T00:53:09.041Z,102634.94
2022-08-30T00:55:37.303Z,102644.66
2022-08-30T00:58:09.926Z,102658.69
2022-08-30T01:00:36.495Z,102669.78
2022-08-30T01:03:03.246Z,102686.59
2022-08-30T01:05:30.175Z,102692.34
2022-08-30T01:07:56.702Z,102705.22
2022-08-30T01:10:23.309Z,102717.91
2022-08-30T01:12:50.096Z,102723.88
2022-08-30T01:15:16.797Z,102733.72
2022-08-30T01:17:45.153Z,102736.25
2022-08-30T01:20:17.544Z,102739.47
2022-08-30T01:22:50.016Z,102749.16
2022-08-30T01:25:24.608Z,102753.47
2022-08-30T01:27:56.752Z,102745.38
2022-08-30T01:30:23.992Z,102751.47
2022-08-30T01:32:56.297Z,102754.03
2022-08-30T01:35:22.952Z,102754.75
2022-08-30T01:37:49.808Z,102759.28
2022-08-30T01:40:19.698Z,102750.09
2022-08-30T01:42:46.375Z,102755.38
2022-08-30T01:45:13.521Z,102759.56
2022-08-30T01:47:40.599Z,102766.44
2022-08-30T01:50:08.201Z,102766.50
2022-08-30T01:52:35.134Z,102770.75
2022-08-30T01:55:02.936Z,102769.75
2022-08-30T01:57:29.490Z,102770.69
2022-08-30T01:59:55.930Z,102780.63
2022-08-30T02:02:26.765Z,102772.38
2022-08-30T02:04:54.390Z,102769.50
2022-08-30T02:07:22.352Z,102774.00
2022-08-30T02:09:48.853Z,102770.53
2022-08-30T02:12:15.383Z,102769.53
2022-08-30T02:14:41.827Z,102770.59
2022-08-30T02:17:10.235Z,102768.03
2022-08-30T02:19:36.592Z,102768.03
2022-08-30T02:22:03.176Z,102777.94
2022-08-30T02:24:29.690Z,102770.09
2022-08-30T02:26:56.208Z,102775.28
2022-08-30T02:29:24.101Z,102781.47
2022-08-30T02:31:51.135Z,102780.56
2022-08-30T02:34:18.816Z,102785.94
2022-08-30T02:36:45.418Z,102787.66
2022-08-30T02:39:13.688Z,102782.31
2022-08-30T02:41:41.586Z,102779.75
2022-08-30T02:44:09.895Z,102786.16
2022-08-30T02:46:36.633Z,102783.59
2022-08-30T02:49:23.760Z,102774.00
2022-08-30T02:51:51.083Z,102776.59
2022-08-30T02:54:20.025Z,102774.00
2022-08-30T02:56:50.223Z,102767.53
2022-08-30T02:59:18.452Z,102766.50
2022-08-30T03:01:45.258Z,102763.63
2022-08-30T03:04:11.850Z,102760.97
2022-08-30T03:06:38.748Z,102759.03
2022-08-30T03:09:05.611Z,102758.78
2022-08-30T03:11:32.232Z,102754.25
2022-08-30T03:13:59.372Z,102759.25
2022-08-30T03:16:25.856Z,102751.47
2022-08-30T03:18:52.346Z,102752.38
2022-08-30T03:21:18.940Z,102749.94
2022-08-30T03:23:45.565Z,102754.34
2022-08-30T03:26:14.669Z,102744.78
2022-08-30T03:28:44.035Z,102744.78
2022-08-30T03:31:11.495Z,102740.34
2022-08-30T03:33:40.321Z,102747.63
2022-08-30T03:36:08.856Z,102744.13
2022-08-30T03:38:35.872Z,102747.00
2022-08-30T03:41:02.419Z,102760.41
2022-08-30T03:43:29.530Z,102748.25
2022-08-30T03:45:56.940Z,102754.75
2022-08-30T03:48:23.471Z,102750.38
2022-08-30T03:50:49.941Z,102749.59
2022-08-30T03:53:16.564Z,102760.06
2022-08-30T03:55:43.176Z,102757.47
2022-08-30T03:58:09.691Z,102761.16
2022-08-30T04:00:36.812Z,102759.41
2022-08-30T04:03:03.453Z,102755.34
2022-08-30T04:05:30.183Z,102765.22
2022-08-30T04:07:56.814Z,102773.84
2022-08-30T04:10:24.268Z,102775.50
2022-08-30T04:12:50.911Z,102779.84
2022-08-30T04:15:18.974Z,102777.09
2022-08-30T04:17:46.360Z,102779.13
2022-08-30T04:20:13.094Z,102784.44
2022-08-30T04:22:39.691Z,102785.34
2022-08-30T04:25:07.178Z,102781.88
2022-08-30T04:27:33.623Z,102786.44
2022-08-30T04:30:01.140Z,102796.19
2022-08-30T04:32:27.779Z,102797.84
2022-08-30T04:34:59.604Z,102807.41
2022-08-30T04:37:26.727Z,102804.88
2022-08-30T04:39:57.716Z,102818.09
2022-08-30T04:42:24.731Z,102818.25
2022-08-30T04:44:51.471Z,102829.59
2022-08-30T04:47:18.541Z,102830.66
2022-08-30T04:49:45.099Z,102833.25
2022-08-30T04:52:11.612Z,102827.88
2022-08-30T04:54:38.447Z,102843.00
2022-08-30T04:57:06.516Z,102850.78
2022-08-30T04:59:33.437Z,102856.03
2022-08-30T05:02:00.573Z,102854.09
2022-08-30T05:04:27.266Z,102860.09
2022-08-30T05:06:53.864Z,102861.59
2022-08-30T05:09:21.882Z,102864.06
2022-08-30T05:11:48.799Z,102872.75
2022-08-30T05:14:15.396Z,102869.75
2022-08-30T05:16:42.217Z,102874.00
2022-08-30T05:19:09.020Z,102872.78
2022-08-30T05:21:35.603Z,102875.28
2022-08-30T05:24:02.370Z,102879.88
2022-08-30T05:26:32.025Z,102875.75
2022-08-30T05:28:58.549Z,102878.16
2022-08-30T05:31:28.148Z,102876.09
2022-08-30T05:33:56.000Z,102871.34
2022-08-30T05:36:25.156Z,102869.16
2022-08-30T05:38:51.735Z,102860.84
2022-08-30T05:41:20.360Z,102859.78
2022-08-30T05:43:46.911Z,102854.19
2022-08-30T05:46:19.278Z,102845.34
2022-08-30T05:48:46.957Z,102837.91
2022-08-30T05:51:17.531Z,102847.41
2022-08-30T05:53:44.947Z,102845.78
2022-08-30T05:56:13.798Z,102847.91
2022-08-30T05:58:40.497Z,102844.00
2022-08-30T06:01:07.518Z,102838.09
2022-08-30T06:03:34.110Z,102831.28
2022-08-30T06:06:00.977Z,102827.25
2022-08-30T06:08:27.766Z,102808.72
2022-08-30T06:10:54.343Z,102790.56
2022-08-30T06:13:20.818Z,102787.28
2022-08-30T06:15:47.337Z,102768.13
2022-08-30T06:18:14.629Z,102760.75
2022-08-30T06:20:42.678Z,102752.59
2022-08-30T06:23:10.324Z,102744.78
2022-08-30T06:25:41.958Z,102733.66
2022-08-30T06:28:09.617Z,102730.81
2022-08-30T06:30:36.270Z,102711.78
2022-08-30T06:33:03.101Z,102701.66
2022-08-30T06:35:32.600Z,102689.94
2022-08-30T06:38:01.992Z,102674.13
2022-08-30T06:40:29.138Z,102659.72
2022-08-30T06:42:55.959Z,102637.00
2022-08-30T06:45:22.616Z,102625.25
2022-08-30T06:47:49.312Z,102591.25
2022-08-30T06:50:17.237Z,102575.00
2022-08-30T06:52:45.518Z,102550.22
2022-08-30T06:55:16.372Z,102551.34
2022-08-30T06:57:43.012Z,102518.97
2022-08-30T07:00:12.226Z,102489.34
2022-08-30T07:02:39.754Z,102462.03
2022-08-30T07:05:07.928Z,102446.47
2022-08-30T07:07:35.314Z,102421.56
2022-08-30T07:10:06.782Z,102409.28
2022-08-30T07:12:33.316Z,102385.28
2022-08-30T07:14:59.794Z,102364.66
2022-08-30T07:17:44.855Z,102347.31
2022-08-30T07:20:11.396Z,102339.78
2022-08-30T07:22:37.889Z,102324.91
2022-08-30T07:25:04.850Z,102327.63
2022-08-30T07:27:31.715Z,102328.22
2022-08-30T07:29:59.295Z,102325.16
2022-08-30T07:32:25.880Z,102321.50
2022-08-30T07:34:52.321Z,102322.50
2022-08-30T07:37:18.860Z,102323.31
2022-08-30T07:39:47.930Z,102322.56
2022-08-30T07:42:14.841Z,102312.16
2022-08-30T07:44:41.289Z,102312.41
2022-08-30T07:47:07.810Z,102321.31
2022-08-30T07:49:34.261Z,102313.47
2022-08-30T07:52:00.723Z,102316.38
2022-08-30T07:54:27.203Z,102312.78
2022-08-30T07:56:55.755Z,102325.19
2022-08-30T07:59:23.685Z,102324.03
2022-08-30T08:01:50.241Z,102318.31
2022-08-30T08:04:19.383Z,102322.63
2022-08-30T08:06:46.043Z,102323.78
2022-08-30T08:09:13.212Z,102325.75
2022-08-30T08:11:41.408Z,102332.38
2022-08-30T08:14:08.540Z,102337.41
2022-08-30T08:16:36.442Z,102341.22
2022-08-30T08:19:04.500Z,102343.09
2022-08-30T08:21:30.936Z,102344.84
2022-08-30T08:23:57.451Z,102347.56
2022-08-30T08:26:24.004Z,102363.09
2022-08-30T08:28:50.515Z,102364.31
2022-08-30T08:31:23.568Z,102364.66
2022-08-30T08:33:50.620Z,102371.13
2022-08-30T08:36:18.493Z,102391.59
2022-08-30T08:38:45.470Z,102383.59
2022-08-30T08:41:15.057Z,102396.41
2022-08-30T08:43:42.324Z,102393.47
2022-08-30T08:46:22.166Z,102405.44
2022-08-30T08:48:59.867Z,102418.47
2022-08-30T08:51:50.624Z,102417.06
2022-08-30T08:54:36.673Z,102430.41
2022-08-30T08:57:03.578Z,102424.22
2022-08-30T08:59:30.420Z,102429.13
2022-08-30T09:02:09.615Z,102442.34
2022-08-30T09:04:39.335Z,102444.09
2022-08-30T09:07:21.833Z,102446.13
2022-08-30T09:09:48.481Z,102452.06
2022-08-30T09:12:15.150Z,102460.97
2022-08-30T09:14:55.385Z,102471.75
2022-08-30T09:17:23.443Z,102476.81
2022-08-30T09:19:52.927Z,102475.44
2022-08-30T09:22:33.637Z,102475.34
2022-08-30T09:25:02.389Z,102486.84
2022-08-30T09:27:38.308Z,102493.88
2022-08-30T09:30:14.384Z,102493.97
2022-08-30T09:32:50.402Z,102493.13
2022-08-30T09:35:23.750Z,102496.63
2022-08-30T09:38:04.323Z,102495.13
2022-08-30T09:40:42.898Z,102485.69
2022-08-30T09:43:28.484Z,102498.03
2022-08-30T09:46:01.057Z,102502.00
2022-08-30T09:48:42.387Z,102509.09
2022-08-30T09:51:11.991Z,102504.41
2022-08-30T09:53:50.981Z,102509.63
2022-08-30T09:56:41.967Z,102509.44
2022-08-30T09:59:39.700Z,102517.72
2022-08-30T10:02:22.019Z,102537.72
2022-08-30T10:05:00.464Z,102553.34
2022-08-30T10:07:53.627Z,102580.34
2022-08-30T10:10:34.688Z,102596.56
2022-08-30T10:13:42.933Z,102599.75
2022-08-30T10:16:15.950Z,102601.22
2022-08-30T10:19:00.772Z,102594.94
2022-08-30T10:21:35.759Z,102601.66
2022-08-30T10:24:19.619Z,102595.69
2022-08-30T10:26:57.638Z,102575.25
2022-08-30T10:29:31.793Z,102561.63
2022-08-30T10:32:06.610Z,102545.38
2022-08-30T10:34:42.513Z,102546.47
2022-08-30T10:37:16.847Z,102558.72
2022-08-30T10:39:47.786Z,102559.72
2022-08-30T10:42:22.715Z,102544.72
2022-08-30T10:45:01.470Z,102536.97
2022-08-30T10:47:42.756Z,102530.63
2022-08-30T10:50:17.259Z,102538.81
2022-08-30T10:52:54.597Z,102484.94
2022-08-30T10:55:35.562Z,102385.06
2022-08-30T10:58:06.039Z,102317.69
2022-08-30T11:01:13.117Z,102254.41
2022-08-30T11:04:07.003Z,102226.44
2022-08-30T11:06:54.008Z,102297.56
2022-08-30T11:09:42.011Z,102272.47
2022-08-30T11:12:36.088Z,102347.16
2022-08-30T11:15:17.050Z,102400.78
2022-08-30T11:17:54.826Z,102391.34
2022-08-30T11:20:36.139Z,102407.63
2022-08-30T11:23:25.922Z,102345.63
2022-08-30T11:26:20.230Z,102375.75
2022-08-30T11:28:47.026Z,102343.00
2022-08-30T11:31:23.529Z,102369.97
2022-08-30T11:33:59.117Z,102376.09
2022-08-30T11:36:46.137Z,102404.03
2022-08-30T11:39:55.747Z,102332.72
2022-08-30T11:42:30.611Z,102186.53
2022-08-30T11:45:22.026Z,102029.56
2022-08-30T11:48:00.805Z,102089.78
2022-08-30T11:50:49.747Z,102010.41
2022-08-30T11:53:24.331Z,101990.97
2022-08-30T11:56:21.223Z,101983.31
2022-08-30T11:58:59.165Z,101883.19
2022-08-30T12:01:42.331Z,101859.13
2022-08-30T12:04:26.794Z,101980.28
2022-08-30T12:07:04.063Z,101900.00
2022-08-30T12:09:30.617Z,101711.16
2022-08-30T12:11:58.596Z,101581.50
2022-08-30T12:14:42.516Z,101583.78
2022-08-30T12:17:39.803Z,101674.94
2022-08-30T12:20:17.643Z,101877.94
2022-08-30T12:22:45.425Z,101887.47
2022-08-30T12:25:21.506Z,101827.13
2022-08-30T12:27:48.727Z,101700.56
2022-08-30T12:30:27.036Z,101789.00
2022-08-30T12:32:53.991Z,101808.41
2022-08-30T12:35:25.697Z,101784.66
2022-08-30T12:38:02.601Z,101737.03
2022-08-30T12:40:31.621Z,101777.28
2022-08-30T12:43:02.691Z,101892.34
2022-08-30T12:45:44.195Z,101787.06
2022-08-30T12:48:17.277Z,101615.47
2022-08-30T12:50:55.100Z,101701.59
2022-08-30T12:53:27.831Z,101717.56
2022-08-30T12:56:00.537Z,101638.66
2022-08-30T12:58:54.022Z,101623.03
2022-08-30T13:01:31.335Z,101801.06
2022-08-30T13:04:26.567Z,101856.41
2022-08-30T13:07:00.071Z,101771.88
2022-08-30T13:09:32.620Z,101800.34
2022-08-30T13:12:01.943Z,101798.44
2022-08-30T13:14:53.564Z,101743.00
2022-08-30T13:17:28.236Z,101657.38
2022-08-30T13:20:05.728Z,101649.00
2022-08-30T13:22:35.307Z,101513.34
2022-08-30T13:25:02.619Z,101474.81
2022-08-30T13:27:31.021Z,101472.47
2022-08-30T13:29:58.325Z,101457.06
2022-08-30T13:32:24.907Z,101474.59
2022-08-30T13:34:51.627Z,101480.03
2022-08-30T13:40:11.655Z,101519.59
2022-08-30T13:42:40.377Z,101507.28
2022-08-30T13:45:40.827Z,101443.69
2022-08-30T13:47:54.680Z,101524.25
2022-08-30T13:50:21.511Z,101569.44
2022-08-30T13:52:48.999Z,101478.63
2022-08-30T13:55:15.828Z,101470.19
2022-08-30T13:57:58.279Z,101604.00
2022-08-30T14:00:26.222Z,101612.47
2022-08-30T14:02:56.113Z,101510.22
2022-08-30T14:11:05.315Z,101615.44
2022-08-30T14:13:32.960Z,101547.94
2022-08-30T14:18:47.999Z,101457.38
2022-08-30T14:21:15.933Z,101360.44
2022-08-30T14:23:42.636Z,101341.03
2022-08-30T14:26:19.050Z,101467.56
2022-08-30T14:28:45.980Z,101412.88
2022-08-30T14:31:18.213Z,101491.03
2022-08-30T14:33:46.716Z,101477.75
2022-08-30T14:36:15.672Z,101633.19
2022-08-30T14:38:44.828Z,101643.31
2022-08-30T14:41:11.501Z,101690.34
2022-08-30T14:43:40.659Z,101630.97
2022-08-30T14:46:09.136Z,101838.53
2022-08-30T14:48:38.021Z,101742.47
2022-08-30T14:51:21.907Z,101622.53
2022-08-30T14:53:52.957Z,101660.19
2022-08-30T14:56:22.157Z,101720.38
2022-08-30T14:58:53.153Z,101585.13
2022-08-30T15:01:22.435Z,101756.97
2022-08-30T15:03:49.095Z,101721.78
2022-08-30T15:06:18.224Z,101769.19
2022-08-30T15:08:47.624Z,101645.84
2022-08-30T15:11:17.503Z,101531.81
2022-08-30T15:13:46.831Z,101442.19
2022-08-30T15:16:19.439Z,101436.25
2022-08-30T15:18:46.641Z,101409.06
2022-08-30T15:21:13.480Z,101382.50
2022-08-30T15:23:40.495Z,101445.09
2022-08-30T15:26:09.433Z,101527.19
2022-08-30T15:28:36.486Z,101596.06
2022-08-30T15:31:06.289Z,101631.28
2022-08-30T15:33:35.513Z,101738.59
2022-08-30T15:36:04.805Z,101696.81
2022-08-30T15:38:32.002Z,101578.56
2022-08-30T15:41:03.359Z,101670.00
2022-08-30T15:43:30.344Z,101503.50
2022-08-30T15:46:18.576Z,101463.06
2022-08-30T15:48:46.461Z,101505.16
2022-08-30T15:51:13.933Z,101444.94
2022-08-30T15:53:40.892Z,101423.63
2022-08-30T15:56:07.505Z,101407.06
2022-08-30T15:58:35.198Z,101454.59
2022-08-30T16:01:02.265Z,101638.63
2022-08-30T16:03:29.335Z,101628.91
2022-08-30T16:05:55.894Z,101596.00
2022-08-30T16:08:22.929Z,101625.16
2022-08-30T16:10:52.023Z,101681.34
2022-08-30T16:13:18.821Z,101625.59
2022-08-30T16:15:46.781Z,101649.22
2022-08-30T16:18:14.739Z,101613.28
2022-08-30T16:20:42.606Z,101532.72
2022-08-30T16:23:11.055Z,101610.81
2022-08-30T16:25:39.887Z,101612.06
2022-08-30T16:28:09.559Z,101574.41
2022-08-30T16:30:36.936Z,101606.59
2022-08-30T16:33:03.725Z,101620.09
2022-08-30T16:35:30.259Z,101612.63
2022-08-30T16:37:56.722Z,101624.34
2022-08-30T16:40:23.739Z,101594.28
2022-08-30T16:42:50.686Z,101559.81
2022-08-30T16:45:17.990Z,101529.25
2022-08-30T16:47:45.841Z,101443.44
2022-08-30T16:50:12.813Z,101482.06
2022-08-30T16:52:44.032Z,101500.78
2022-08-30T16:55:10.972Z,101509.22
2022-08-30T16:57:38.610Z,101508.63
2022-08-30T17:00:13.180Z,101518.69
2022-08-30T17:02:40.535Z,101471.56
2022-08-30T17:05:14.681Z,101511.41
2022-08-30T17:07:41.923Z,101516.56
2022-08-30T17:10:08.920Z,101583.53
2022-08-30T17:12:35.539Z,101554.91
2022-08-30T17:15:05.713Z,101563.06
2022-08-30T17:17:32.702Z,101577.69
2022-08-30T17:19:59.295Z,101652.81
2022-08-30T17:22:26.092Z,101665.59
2022-08-30T17:24:53.035Z,101721.59
2022-08-30T17:27:19.797Z,101664.28
2022-08-30T17:29:46.368Z,101692.94
2022-08-30T17:32:12.979Z,101733.41
2022-08-30T17:34:39.911Z,101760.09
2022-08-30T17:37:06.475Z,101783.53
2022-08-30T17:39:33.893Z,101868.66
2022-08-30T17:42:00.889Z,102022.41
2022-08-30T17:44:30.898Z,102139.78
2022-08-30T17:46:59.727Z,102269.19
2022-08-30T17:49:27.326Z,102352.03
2022-08-30T17:51:56.984Z,102418.69
2022-08-30T17:54:25.830Z,102457.41
2022-08-30T17:56:53.195Z,102493.94
2022-08-30T17:59:25.032Z,102527.88
2022-08-30T18:01:53.657Z,102551.19
2022-08-30T18:04:21.711Z,102571.50
2022-08-30T18:06:51.898Z,102577.09
2022-08-30T18:09:18.416Z,102596.91
2022-08-30T18:11:44.943Z,102608.72
2022-08-30T18:14:12.701Z,102613.50
2022-08-30T18:16:53.731Z,102610.56
2022-08-30T18:19:21.827Z,102605.66
2022-08-30T18:21:48.395Z,102607.75
2022-08-30T18:24:15.984Z,102611.53
2022-08-30T18:26:44.948Z,102610.78
2022-08-30T18:29:11.533Z,102610.31
2022-08-30T18:31:38.430Z,102610.22
2022-08-30T18:34:06.934Z,102616.69
2022-08-30T18:36:39.114Z,102618.75
2022-08-30T18:39:06.469Z,102610.97
2022-08-30T18:41:33.188Z,102611.16
2022-08-30T18:44:23.840Z,102612.28
2022-08-30T18:47:31.868Z,102616.47
2022-08-30T18:49:35.441Z,102615.22
2022-08-30T18:52:06.548Z,102624.19
2022-08-30T18:54:36.641Z,102620.34
2022-08-30T18:57:03.248Z,102624.47
2022-08-30T18:59:31.425Z,102630.47
2022-08-30T19:02:04.199Z,102637.22
2022-08-30T19:04:35.380Z,102644.16
2022-08-30T19:07:03.798Z,102640.84
2022-08-30T19:09:30.498Z,102645.47
2022-08-30T19:11:57.471Z,102650.44
2022-08-30T19:14:27.927Z,102654.34
2022-08-30T19:16:56.601Z,102658.25
2022-08-30T19:19:23.703Z,102655.78
2022-08-30T19:21:50.217Z,102648.47
2022-08-30T19:24:17.849Z,102639.38
2022-08-30T19:26:46.867Z,102639.63
2022-08-30T19:29:14.649Z,102623.59
2022-08-30T19:31:42.006Z,102613.97
2022-08-30T19:34:08.808Z,102593.44
2022-08-30T19:36:35.290Z,102579.63
2022-08-30T19:39:02.313Z,102567.50
2022-08-30T19:41:29.588Z,102557.41
2022-08-30T19:43:57.250Z,102529.13
2022-08-30T19:46:27.660Z,102535.31
2022-08-30T19:48:54.217Z,102520.22
2022-08-30T19:51:20.815Z,102507.59
2022-08-30T19:53:48.436Z,102508.25
2022-08-30T19:56:15.056Z,102501.63
2022-08-30T19:58:41.739Z,102496.28
2022-08-30T20:01:12.100Z,102486.78
2022-08-30T20:03:47.561Z,102479.28
2022-08-30T20:06:19.870Z,102472.91
2022-08-30T20:08:47.325Z,102473.94
2022-08-30T20:11:20.108Z,102467.97
2022-08-30T20:13:48.154Z,102465.16
2022-08-30T20:16:15.797Z,102456.53
2022-08-30T20:18:44.887Z,102455.66
2022-08-30T20:21:14.427Z,102464.13
2022-08-30T20:23:42.999Z,102448.84
2022-08-30T20:26:11.553Z,102451.19
2022-08-30T20:28:38.838Z,102451.31
2022-08-30T20:31:07.195Z,102449.72
2022-08-30T20:33:36.522Z,102449.59
2022-08-30T20:36:09.733Z,102438.94
2022-08-30T20:38:36.313Z,102441.88
2022-08-30T20:41:10.567Z,102440.22
2022-08-30T20:43:37.825Z,102443.41
2022-08-30T20:46:13.539Z,102436.59
2022-08-30T20:48:41.585Z,102429.97
2022-08-30T20:51:10.392Z,102437.59
2022-08-30T20:53:37.396Z,102442.25
2022-08-30T20:56:07.742Z,102425.50
2022-08-30T20:58:34.359Z,102428.38
2022-08-30T21:01:01.106Z,102415.28
2022-08-30T21:03:32.784Z,102411.69
2022-08-30T21:05:59.490Z,102416.09
2022-08-30T21:08:26.262Z,102409.81
2022-08-30T21:10:53.408Z,102408.66
2022-08-30T21:13:20.383Z,102408.22
2022-08-30T21:15:51.302Z,102399.28
2022-08-30T21:18:18.186Z,102407.44
2022-08-30T21:20:44.853Z,102413.84
2022-08-30T21:23:11.407Z,102406.06
2022-08-30T21:25:39.579Z,102397.56
2022-08-30T21:28:06.942Z,102395.97
2022-08-30T21:30:34.688Z,102397.84
2022-08-30T21:33:03.876Z,102403.34
2022-08-30T21:35:49.412Z,102404.78
2022-08-30T21:38:16.692Z,102397.06
2022-08-30T21:40:43.704Z,102402.88
2022-08-30T21:43:10.753Z,102393.91
2022-08-30T21:45:39.117Z,102389.13
2022-08-30T21:48:05.686Z,102397.25
2022-08-30T21:50:32.233Z,102389.91
2022-08-30T21:52:58.720Z,102391.66
2022-08-30T21:55:25.463Z,102393.22
2022-08-30T21:57:54.252Z,102391.94
2022-08-30T22:00:21.006Z,102389.78
2022-08-30T22:02:49.254Z,102386.31
2022-08-30T22:05:20.015Z,102387.16
2022-08-30T22:07:46.493Z,102390.56
2022-08-30T22:10:13.040Z,102382.28
2022-08-30T22:12:39.630Z,102381.94
2022-08-30T22:15:09.035Z,102383.28
2022-08-30T22:17:35.513Z,102384.28
2022-08-30T22:20:02.200Z,102392.22
2022-08-30T22:22:28.991Z,102387.16
2022-08-30T22:24:55.498Z,102389.63
2022-08-30T22:27:22.003Z,102393.53
2022-08-30T22:29:48.467Z,102389.78
2022-08-30T22:32:15.079Z,102394.19
2022-08-30T22:34:44.990Z,102390.47
2022-08-30T22:37:11.535Z,102396.19
2022-08-30T22:39:38.075Z,102396.97
2022-08-30T22:42:05.192Z,102396.84
2022-08-30T22:44:31.994Z,102401.47
2022-08-30T22:46:58.447Z,102403.44
2022-08-30T22:49:25.780Z,102405.47
2022-08-30T22:51:52.278Z,102407.13
2022-08-30T22:54:18.823Z,102411.97
2022-08-30T22:56:45.305Z,102410.97
2022-08-30T22:59:11.815Z,102410.03
2022-08-30T23:01:43.017Z,102420.91
2022-08-30T23:04:10.647Z,102415.72
2022-08-30T23:06:37.374Z,102414.28
2022-08-30T23:09:05.676Z,102410.31
2022-08-30T23:11:33.441Z,102413.81
2022-08-30T23:14:00.937Z,102412.06
2022-08-30T23:16:27.438Z,102411.41
2022-08-30T23:18:54.028Z,102413.13
2022-08-30T23:21:27.683Z,102410.09
2022-08-30T23:24:13.675Z,102414.69
2022-08-30T23:26:59.719Z,102419.44
2022-08-30T23:29:45.975Z,102415.38
2022-08-30T23:32:31.581Z,102415.53
2022-08-30T23:35:16.517Z,102421.84
2022-08-30T23:38:01.374Z,102416.81
2022-08-30T23:40:46.581Z,102401.09
2022-08-30T23:43:32.258Z,102405.84
2022-08-30T23:46:19.441Z,102412.97
2022-08-30T23:49:06.270Z,102421.31
2022-08-30T23:51:51.869Z,102416.88
2022-08-30T23:54:36.979Z,102416.19
2022-08-30T23:57:23.658Z,102418.09
